sensor_id;sensor_type;location;lat;lon;timestamp;P1;durP1;ratioP1;P2;durP2;ratioP2
51810;SDS011;52468;40.116;18.296;2023-12-20T00:01:09;94.70;;;45.03;;
51810;SDS011;52468;40.116;18.296;2023-12-20T00:03:37;108.20;;;44.77;;
51810;SDS011;52468;40.116;18.296;2023-12-20T00:06:07;119.97;;;51.13;;
51810;SDS011;52468;40.116;18.296;2023-12-20T00:08:35;112.23;;;48.47;;
51810;SDS011;52468;40.116;18.296;2023-12-20T00:11:03;115.73;;;46.30;;
51810;SDS011;52468;40.116;18.296;2023-12-20T00:13:30;89.07;;;39.47;;
51810;SDS011;52468;40.116;18.296;2023-12-20T00:15:58;75.23;;;34.20;;
51810;SDS011;52468;40.116;18.296;2023-12-20T00:18:26;65.80;;;34.23;;
51810;SDS011;52468;40.116;18.296;2023-12-20T00:20:54;77.00;;;34.53;;
51810;SDS011;52468;40.116;18.296;2023-12-20T00:23:23;57.23;;;31.47;;
51810;SDS011;52468;40.116;18.296;2023-12-20T00:25:51;80.07;;;33.20;;
51810;SDS011;52468;40.116;18.296;2023-12-20T00:28:19;70.20;;;33.27;;
51810;SDS011;52468;40.116;18.296;2023-12-20T00:30:47;62.10;;;31.63;;
51810;SDS011;52468;40.116;18.296;2023-12-20T00:33:15;71.47;;;33.63;;
51810;SDS011;52468;40.116;18.296;2023-12-20T00:35:44;77.10;;;39.10;;
51810;SDS011;52468;40.116;18.296;2023-12-20T00:38:12;102.90;;;49.10;;
51810;SDS011;52468;40.116;18.296;2023-12-20T00:40:40;100.03;;;50.40;;
51810;SDS011;52468;40.116;18.296;2023-12-20T00:43:07;100.33;;;48.00;;
51810;SDS011;52468;40.116;18.296;2023-12-20T00:45:35;89.40;;;44.63;;
51810;SDS011;52468;40.116;18.296;2023-12-20T00:48:03;92.43;;;42.83;;
51810;SDS011;52468;40.116;18.296;2023-12-20T00:50:31;83.53;;;39.83;;
51810;SDS011;52468;40.116;18.296;2023-12-20T00:52:59;84.90;;;41.60;;
51810;SDS011;52468;40.116;18.296;2023-12-20T00:55:27;84.73;;;41.43;;
51810;SDS011;52468;40.116;18.296;2023-12-20T00:57:55;105.37;;;41.63;;
51810;SDS011;52468;40.116;18.296;2023-12-20T01:00:23;90.67;;;39.27;;
51810;SDS011;52468;40.116;18.296;2023-12-20T01:02:51;88.70;;;40.03;;
51810;SDS011;52468;40.116;18.296;2023-12-20T01:05:19;94.17;;;39.80;;
51810;SDS011;52468;40.116;18.296;2023-12-20T01:07:50;88.87;;;40.27;;
51810;SDS011;52468;40.116;18.296;2023-12-20T01:10:18;100.57;;;41.43;;
51810;SDS011;52468;40.116;18.296;2023-12-20T01:12:46;95.27;;;38.13;;
51810;SDS011;52468;40.116;18.296;2023-12-20T01:15:14;89.37;;;37.60;;
51810;SDS011;52468;40.116;18.296;2023-12-20T01:17:42;81.83;;;37.10;;
51810;SDS011;52468;40.116;18.296;2023-12-20T01:20:10;87.97;;;38.17;;
51810;SDS011;52468;40.116;18.296;2023-12-20T01:22:38;91.53;;;37.43;;
51810;SDS011;52468;40.116;18.296;2023-12-20T01:25:06;93.60;;;37.13;;
51810;SDS011;52468;40.116;18.296;2023-12-20T01:27:34;82.87;;;36.07;;
51810;SDS011;52468;40.116;18.296;2023-12-20T01:30:02;88.03;;;36.77;;
51810;SDS011;52468;40.116;18.296;2023-12-20T01:32:30;77.37;;;35.30;;
51810;SDS011;52468;40.116;18.296;2023-12-20T01:34:58;85.83;;;35.20;;
51810;SDS011;52468;40.116;18.296;2023-12-20T01:37:26;85.43;;;34.07;;
51810;SDS011;52468;40.116;18.296;2023-12-20T01:39:56;75.53;;;34.10;;
51810;SDS011;52468;40.116;18.296;2023-12-20T01:42:24;79.23;;;31.67;;
51810;SDS011;52468;40.116;18.296;2023-12-20T01:44:52;76.97;;;32.10;;
51810;SDS011;52468;40.116;18.296;2023-12-20T01:47:20;78.23;;;33.03;;
51810;SDS011;52468;40.116;18.296;2023-12-20T01:49:49;78.73;;;33.30;;
51810;SDS011;52468;40.116;18.296;2023-12-20T01:52:18;80.83;;;31.90;;
51810;SDS011;52468;40.116;18.296;2023-12-20T01:54:47;82.17;;;35.17;;
51810;SDS011;52468;40.116;18.296;2023-12-20T01:57:15;83.40;;;33.83;;
51810;SDS011;52468;40.116;18.296;2023-12-20T01:59:44;81.50;;;34.73;;
51810;SDS011;52468;40.116;18.296;2023-12-20T02:02:11;79.37;;;34.00;;
51810;SDS011;52468;40.116;18.296;2023-12-20T02:04:39;81.20;;;30.30;;
51810;SDS011;52468;40.116;18.296;2023-12-20T02:07:08;74.53;;;30.63;;
51810;SDS011;52468;40.116;18.296;2023-12-20T02:09:37;70.10;;;29.57;;
51810;SDS011;52468;40.116;18.296;2023-12-20T02:12:06;66.73;;;27.43;;
51810;SDS011;52468;40.116;18.296;2023-12-20T02:14:34;62.43;;;26.87;;
51810;SDS011;52468;40.116;18.296;2023-12-20T02:17:02;61.07;;;28.97;;
51810;SDS011;52468;40.116;18.296;2023-12-20T02:19:30;66.87;;;25.53;;
51810;SDS011;52468;40.116;18.296;2023-12-20T02:22:08;52.23;;;25.97;;
51810;SDS011;52468;40.116;18.296;2023-12-20T02:24:40;64.20;;;26.03;;
51810;SDS011;52468;40.116;18.296;2023-12-20T02:27:08;51.97;;;24.23;;
51810;SDS011;52468;40.116;18.296;2023-12-20T02:29:36;61.17;;;26.00;;
51810;SDS011;52468;40.116;18.296;2023-12-20T02:32:04;51.83;;;26.50;;
51810;SDS011;52468;40.116;18.296;2023-12-20T02:34:32;56.10;;;23.20;;
51810;SDS011;52468;40.116;18.296;2023-12-20T02:37:00;51.37;;;24.10;;
51810;SDS011;52468;40.116;18.296;2023-12-20T02:39:27;55.73;;;26.27;;
51810;SDS011;52468;40.116;18.296;2023-12-20T02:41:55;60.17;;;26.67;;
51810;SDS011;52468;40.116;18.296;2023-12-20T02:44:23;62.67;;;24.77;;
51810;SDS011;52468;40.116;18.296;2023-12-20T02:46:51;58.97;;;26.43;;
51810;SDS011;52468;40.116;18.296;2023-12-20T02:49:19;61.10;;;25.00;;
51810;SDS011;52468;40.116;18.296;2023-12-20T02:51:47;51.07;;;26.97;;
51810;SDS011;52468;40.116;18.296;2023-12-20T02:54:15;64.40;;;28.43;;
51810;SDS011;52468;40.116;18.296;2023-12-20T02:56:43;64.57;;;29.13;;
51810;SDS011;52468;40.116;18.296;2023-12-20T02:59:11;68.03;;;26.83;;
51810;SDS011;52468;40.116;18.296;2023-12-20T03:01:42;69.60;;;29.27;;
51810;SDS011;52468;40.116;18.296;2023-12-20T03:04:11;66.83;;;28.90;;
51810;SDS011;52468;40.116;18.296;2023-12-20T03:06:39;56.27;;;26.40;;
51810;SDS011;52468;40.116;18.296;2023-12-20T03:09:07;56.33;;;26.70;;
51810;SDS011;52468;40.116;18.296;2023-12-20T03:11:35;61.30;;;27.03;;
51810;SDS011;52468;40.116;18.296;2023-12-20T03:14:03;59.10;;;26.70;;
51810;SDS011;52468;40.116;18.296;2023-12-20T03:16:31;64.03;;;24.87;;
51810;SDS011;52468;40.116;18.296;2023-12-20T03:19:01;55.63;;;26.10;;
51810;SDS011;52468;40.116;18.296;2023-12-20T03:21:29;72.00;;;27.37;;
51810;SDS011;52468;40.116;18.296;2023-12-20T03:23:57;61.43;;;26.17;;
51810;SDS011;52468;40.116;18.296;2023-12-20T03:26:25;54.47;;;26.80;;
51810;SDS011;52468;40.116;18.296;2023-12-20T03:28:53;58.27;;;26.57;;
51810;SDS011;52468;40.116;18.296;2023-12-20T03:31:20;59.87;;;28.23;;
51810;SDS011;52468;40.116;18.296;2023-12-20T03:33:49;60.20;;;26.37;;
51810;SDS011;52468;40.116;18.296;2023-12-20T03:36:18;57.07;;;27.00;;
51810;SDS011;52468;40.116;18.296;2023-12-20T03:38:46;64.10;;;27.87;;
51810;SDS011;52468;40.116;18.296;2023-12-20T03:41:14;61.43;;;27.07;;
51810;SDS011;52468;40.116;18.296;2023-12-20T03:43:41;71.10;;;26.87;;
51810;SDS011;52468;40.116;18.296;2023-12-20T03:46:09;65.67;;;25.97;;
51810;SDS011;52468;40.116;18.296;2023-12-20T03:48:37;61.73;;;27.10;;
51810;SDS011;52468;40.116;18.296;2023-12-20T03:51:05;57.87;;;27.27;;
51810;SDS011;52468;40.116;18.296;2023-12-20T03:53:33;62.83;;;23.53;;
51810;SDS011;52468;40.116;18.296;2023-12-20T03:56:01;72.73;;;26.13;;
51810;SDS011;52468;40.116;18.296;2023-12-20T03:58:28;59.13;;;23.47;;
51810;SDS011;52468;40.116;18.296;2023-12-20T04:00:56;72.67;;;26.57;;
51810;SDS011;52468;40.116;18.296;2023-12-20T04:03:24;64.73;;;24.57;;
51810;SDS011;52468;40.116;18.296;2023-12-20T04:05:52;64.80;;;24.60;;
51810;SDS011;52468;40.116;18.296;2023-12-20T04:08:20;61.03;;;25.97;;
51810;SDS011;52468;40.116;18.296;2023-12-20T04:10:48;65.00;;;25.13;;
51810;SDS011;52468;40.116;18.296;2023-12-20T04:13:15;60.47;;;24.90;;
51810;SDS011;52468;40.116;18.296;2023-12-20T04:15:43;66.87;;;26.60;;
51810;SDS011;52468;40.116;18.296;2023-12-20T04:18:11;61.80;;;27.93;;
51810;SDS011;52468;40.116;18.296;2023-12-20T04:20:39;59.70;;;28.37;;
51810;SDS011;52468;40.116;18.296;2023-12-20T04:23:07;66.73;;;29.10;;
51810;SDS011;52468;40.116;18.296;2023-12-20T04:25:35;69.37;;;29.90;;
51810;SDS011;52468;40.116;18.296;2023-12-20T04:28:02;59.73;;;29.00;;
51810;SDS011;52468;40.116;18.296;2023-12-20T04:30:30;68.23;;;27.97;;
51810;SDS011;52468;40.116;18.296;2023-12-20T04:32:58;70.27;;;29.17;;
51810;SDS011;52468;40.116;18.296;2023-12-20T04:35:26;62.20;;;28.87;;
51810;SDS011;52468;40.116;18.296;2023-12-20T04:37:54;59.43;;;26.97;;
51810;SDS011;52468;40.116;18.296;2023-12-20T04:40:22;60.40;;;26.27;;
51810;SDS011;52468;40.116;18.296;2023-12-20T04:42:50;61.77;;;26.37;;
51810;SDS011;52468;40.116;18.296;2023-12-20T04:45:18;56.17;;;26.07;;
51810;SDS011;52468;40.116;18.296;2023-12-20T04:47:46;54.00;;;25.33;;
51810;SDS011;52468;40.116;18.296;2023-12-20T04:50:14;61.47;;;26.13;;
51810;SDS011;52468;40.116;18.296;2023-12-20T04:52:43;57.13;;;21.67;;
51810;SDS011;52468;40.116;18.296;2023-12-20T04:55:11;53.03;;;24.53;;
51810;SDS011;52468;40.116;18.296;2023-12-20T04:57:39;58.07;;;25.60;;
51810;SDS011;52468;40.116;18.296;2023-12-20T05:00:07;58.67;;;25.63;;
51810;SDS011;52468;40.116;18.296;2023-12-20T05:02:37;58.73;;;24.40;;
51810;SDS011;52468;40.116;18.296;2023-12-20T05:05:05;62.53;;;24.27;;
51810;SDS011;52468;40.116;18.296;2023-12-20T05:07:34;52.63;;;24.97;;
51810;SDS011;52468;40.116;18.296;2023-12-20T05:10:02;49.30;;;22.97;;
51810;SDS011;52468;40.116;18.296;2023-12-20T05:12:31;61.93;;;24.43;;
51810;SDS011;52468;40.116;18.296;2023-12-20T05:14:59;71.77;;;27.70;;
51810;SDS011;52468;40.116;18.296;2023-12-20T05:17:27;69.20;;;28.50;;
51810;SDS011;52468;40.116;18.296;2023-12-20T05:19:55;61.20;;;25.93;;
51810;SDS011;52468;40.116;18.296;2023-12-20T05:22:23;74.33;;;29.77;;
51810;SDS011;52468;40.116;18.296;2023-12-20T05:24:51;90.50;;;29.90;;
51810;SDS011;52468;40.116;18.296;2023-12-20T05:27:19;87.03;;;30.37;;
51810;SDS011;52468;40.116;18.296;2023-12-20T05:29:47;89.23;;;33.23;;
51810;SDS011;52468;40.116;18.296;2023-12-20T05:32:15;95.90;;;35.67;;
51810;SDS011;52468;40.116;18.296;2023-12-20T05:34:43;122.87;;;39.87;;
51810;SDS011;52468;40.116;18.296;2023-12-20T05:37:11;103.27;;;36.00;;
51810;SDS011;52468;40.116;18.296;2023-12-20T05:39:39;114.07;;;37.77;;
51810;SDS011;52468;40.116;18.296;2023-12-20T05:42:07;97.83;;;37.77;;
51810;SDS011;52468;40.116;18.296;2023-12-20T05:44:35;109.50;;;38.53;;
51810;SDS011;52468;40.116;18.296;2023-12-20T05:47:03;98.90;;;35.00;;
51810;SDS011;52468;40.116;18.296;2023-12-20T05:49:31;101.87;;;34.33;;
51810;SDS011;52468;40.116;18.296;2023-12-20T05:51:59;105.17;;;30.00;;
51810;SDS011;52468;40.116;18.296;2023-12-20T05:54:27;69.10;;;24.50;;
51810;SDS011;52468;40.116;18.296;2023-12-20T05:56:55;70.23;;;24.13;;
51810;SDS011;52468;40.116;18.296;2023-12-20T05:59:23;59.03;;;23.10;;
51810;SDS011;52468;40.116;18.296;2023-12-20T06:01:51;65.33;;;25.00;;
51810;SDS011;52468;40.116;18.296;2023-12-20T06:04:19;57.47;;;22.47;;
51810;SDS011;52468;40.116;18.296;2023-12-20T06:06:48;57.50;;;23.53;;
51810;SDS011;52468;40.116;18.296;2023-12-20T06:09:15;69.33;;;23.83;;
51810;SDS011;52468;40.116;18.296;2023-12-20T06:11:43;70.20;;;27.33;;
51810;SDS011;52468;40.116;18.296;2023-12-20T06:14:11;66.20;;;21.27;;
51810;SDS011;52468;40.116;18.296;2023-12-20T06:16:39;67.07;;;23.37;;
51810;SDS011;52468;40.116;18.296;2023-12-20T06:19:07;49.83;;;19.07;;
51810;SDS011;52468;40.116;18.296;2023-12-20T06:21:35;61.00;;;21.80;;
51810;SDS011;52468;40.116;18.296;2023-12-20T06:24:03;71.20;;;22.30;;
51810;SDS011;52468;40.116;18.296;2023-12-20T06:26:31;47.77;;;18.03;;
51810;SDS011;52468;40.116;18.296;2023-12-20T06:28:59;44.97;;;16.43;;
51810;SDS011;52468;40.116;18.296;2023-12-20T06:31:27;40.03;;;15.63;;
51810;SDS011;52468;40.116;18.296;2023-12-20T06:33:55;29.70;;;13.20;;
51810;SDS011;52468;40.116;18.296;2023-12-20T06:36:25;43.90;;;15.63;;
51810;SDS011;52468;40.116;18.296;2023-12-20T06:38:53;37.80;;;15.30;;
51810;SDS011;52468;40.116;18.296;2023-12-20T06:41:21;28.70;;;14.53;;
51810;SDS011;52468;40.116;18.296;2023-12-20T06:43:51;33.77;;;13.70;;
51810;SDS011;52468;40.116;18.296;2023-12-20T06:46:20;42.90;;;15.80;;
51810;SDS011;52468;40.116;18.296;2023-12-20T06:48:48;36.20;;;14.67;;
51810;SDS011;52468;40.116;18.296;2023-12-20T06:51:16;26.03;;;14.00;;
51810;SDS011;52468;40.116;18.296;2023-12-20T06:53:45;30.87;;;15.13;;
51810;SDS011;52468;40.116;18.296;2023-12-20T06:56:12;36.27;;;14.90;;
51810;SDS011;52468;40.116;18.296;2023-12-20T06:58:41;35.67;;;15.53;;
51810;SDS011;52468;40.116;18.296;2023-12-20T07:01:13;33.37;;;15.90;;
51810;SDS011;52468;40.116;18.296;2023-12-20T07:03:42;54.93;;;17.37;;
51810;SDS011;52468;40.116;18.296;2023-12-20T07:06:10;36.70;;;14.70;;
51810;SDS011;52468;40.116;18.296;2023-12-20T07:08:38;42.20;;;19.80;;
51810;SDS011;52468;40.116;18.296;2023-12-20T07:11:07;48.77;;;18.27;;
51810;SDS011;52468;40.116;18.296;2023-12-20T07:13:35;42.60;;;17.70;;
51810;SDS011;52468;40.116;18.296;2023-12-20T07:16:03;37.23;;;17.27;;
51810;SDS011;52468;40.116;18.296;2023-12-20T07:18:31;79.90;;;24.07;;
51810;SDS011;52468;40.116;18.296;2023-12-20T07:20:59;57.20;;;29.37;;
51810;SDS011;52468;40.116;18.296;2023-12-20T07:23:27;69.57;;;30.50;;
51810;SDS011;52468;40.116;18.296;2023-12-20T07:25:55;76.53;;;33.33;;
51810;SDS011;52468;40.116;18.296;2023-12-20T07:28:22;85.87;;;33.83;;
51810;SDS011;52468;40.116;18.296;2023-12-20T07:30:52;57.73;;;26.57;;
51810;SDS011;52468;40.116;18.296;2023-12-20T07:33:19;70.77;;;33.97;;
51810;SDS011;52468;40.116;18.296;2023-12-20T07:35:47;67.37;;;30.13;;
51810;SDS011;52468;40.116;18.296;2023-12-20T07:38:16;55.97;;;29.27;;
51810;SDS011;52468;40.116;18.296;2023-12-20T07:40:44;66.23;;;31.27;;
51810;SDS011;52468;40.116;18.296;2023-12-20T07:43:12;88.43;;;27.83;;
51810;SDS011;52468;40.116;18.296;2023-12-20T07:45:39;71.13;;;24.77;;
51810;SDS011;52468;40.116;18.296;2023-12-20T07:48:07;55.23;;;21.80;;
51810;SDS011;52468;40.116;18.296;2023-12-20T07:50:35;41.70;;;21.57;;
51810;SDS011;52468;40.116;18.296;2023-12-20T07:53:03;44.70;;;20.33;;
51810;SDS011;52468;40.116;18.296;2023-12-20T07:55:31;36.97;;;15.50;;
51810;SDS011;52468;40.116;18.296;2023-12-20T07:57:59;32.63;;;15.80;;
51810;SDS011;52468;40.116;18.296;2023-12-20T08:00:27;43.37;;;15.17;;
51810;SDS011;52468;40.116;18.296;2023-12-20T08:02:55;41.07;;;16.60;;
51810;SDS011;52468;40.116;18.296;2023-12-20T08:05:23;28.90;;;15.83;;
51810;SDS011;52468;40.116;18.296;2023-12-20T08:07:51;33.23;;;15.73;;
51810;SDS011;52468;40.116;18.296;2023-12-20T08:10:19;35.17;;;13.73;;
51810;SDS011;52468;40.116;18.296;2023-12-20T08:12:47;33.37;;;15.70;;
51810;SDS011;52468;40.116;18.296;2023-12-20T08:15:15;32.80;;;14.37;;
51810;SDS011;52468;40.116;18.296;2023-12-20T08:17:42;46.27;;;15.77;;
51810;SDS011;52468;40.116;18.296;2023-12-20T08:20:10;37.27;;;15.07;;
51810;SDS011;52468;40.116;18.296;2023-12-20T08:22:38;42.97;;;14.67;;
51810;SDS011;52468;40.116;18.296;2023-12-20T08:25:06;34.77;;;13.30;;
51810;SDS011;52468;40.116;18.296;2023-12-20T08:27:41;31.03;;;13.00;;
51810;SDS011;52468;40.116;18.296;2023-12-20T08:30:09;41.90;;;15.03;;
51810;SDS011;52468;40.116;18.296;2023-12-20T08:32:38;42.27;;;14.70;;
51810;SDS011;52468;40.116;18.296;2023-12-20T08:35:05;39.27;;;13.77;;
51810;SDS011;52468;40.116;18.296;2023-12-20T08:37:34;35.23;;;15.10;;
51810;SDS011;52468;40.116;18.296;2023-12-20T08:40:03;30.83;;;13.97;;
51810;SDS011;52468;40.116;18.296;2023-12-20T08:42:31;31.17;;;14.07;;
51810;SDS011;52468;40.116;18.296;2023-12-20T08:44:59;35.27;;;13.33;;
51810;SDS011;52468;40.116;18.296;2023-12-20T08:47:27;45.87;;;16.03;;
51810;SDS011;52468;40.116;18.296;2023-12-20T08:49:55;34.60;;;19.00;;
51810;SDS011;52468;40.116;18.296;2023-12-20T08:52:28;33.67;;;14.68;;
51810;SDS011;52468;40.116;18.296;2023-12-20T08:54:56;38.60;;;15.83;;
51810;SDS011;52468;40.116;18.296;2023-12-20T08:57:24;45.20;;;22.80;;
51810;SDS011;52468;40.116;18.296;2023-12-20T08:59:52;37.87;;;16.50;;
51810;SDS011;52468;40.116;18.296;2023-12-20T09:02:20;40.20;;;19.13;;
51810;SDS011;52468;40.116;18.296;2023-12-20T09:04:48;31.77;;;18.20;;
51810;SDS011;52468;40.116;18.296;2023-12-20T09:07:25;46.67;;;19.07;;
51810;SDS011;52468;40.116;18.296;2023-12-20T09:09:54;35.37;;;20.57;;
51810;SDS011;52468;40.116;18.296;2023-12-20T09:12:21;47.83;;;24.27;;
51810;SDS011;52468;40.116;18.296;2023-12-20T09:14:50;37.33;;;24.10;;
51810;SDS011;52468;40.116;18.296;2023-12-20T09:17:18;42.03;;;22.43;;
51810;SDS011;52468;40.116;18.296;2023-12-20T09:19:47;30.40;;;16.30;;
51810;SDS011;52468;40.116;18.296;2023-12-20T09:22:16;26.70;;;16.63;;
51810;SDS011;52468;40.116;18.296;2023-12-20T09:24:44;30.33;;;16.23;;
51810;SDS011;52468;40.116;18.296;2023-12-20T09:27:12;26.17;;;14.43;;
51810;SDS011;52468;40.116;18.296;2023-12-20T09:29:40;27.03;;;14.80;;
51810;SDS011;52468;40.116;18.296;2023-12-20T09:32:08;23.00;;;13.17;;
51810;SDS011;52468;40.116;18.296;2023-12-20T09:34:36;20.23;;;12.63;;
51810;SDS011;52468;40.116;18.296;2023-12-20T09:37:04;19.23;;;14.07;;
51810;SDS011;52468;40.116;18.296;2023-12-20T09:39:32;20.83;;;16.07;;
51810;SDS011;52468;40.116;18.296;2023-12-20T09:42:02;15.90;;;11.50;;
51810;SDS011;52468;40.116;18.296;2023-12-20T09:44:31;15.60;;;12.23;;
51810;SDS011;52468;40.116;18.296;2023-12-20T09:47:02;17.30;;;10.60;;
51810;SDS011;52468;40.116;18.296;2023-12-20T09:49:31;15.10;;;10.20;;
51810;SDS011;52468;40.116;18.296;2023-12-20T09:52:00;16.87;;;10.03;;
51810;SDS011;52468;40.116;18.296;2023-12-20T09:54:29;22.17;;;12.80;;
51810;SDS011;52468;40.116;18.296;2023-12-20T09:56:57;16.50;;;10.70;;
51810;SDS011;52468;40.116;18.296;2023-12-20T09:59:25;16.67;;;9.07;;
51810;SDS011;52468;40.116;18.296;2023-12-20T10:01:54;8.70;;;7.17;;
51810;SDS011;52468;40.116;18.296;2023-12-20T10:04:24;15.53;;;8.13;;
51810;SDS011;52468;40.116;18.296;2023-12-20T10:06:55;9.17;;;8.23;;
51810;SDS011;52468;40.116;18.296;2023-12-20T10:09:24;12.13;;;8.17;;
51810;SDS011;52468;40.116;18.296;2023-12-20T10:11:54;10.90;;;7.60;;
51810;SDS011;52468;40.116;18.296;2023-12-20T10:14:22;9.40;;;7.20;;
51810;SDS011;52468;40.116;18.296;2023-12-20T10:16:52;12.10;;;7.93;;
51810;SDS011;52468;40.116;18.296;2023-12-20T10:19:21;11.13;;;7.70;;
51810;SDS011;52468;40.116;18.296;2023-12-20T10:21:49;9.70;;;7.17;;
51810;SDS011;52468;40.116;18.296;2023-12-20T10:24:17;7.90;;;5.70;;
51810;SDS011;52468;40.116;18.296;2023-12-20T10:26:45;6.10;;;5.27;;
51810;SDS011;52468;40.116;18.296;2023-12-20T10:29:13;7.87;;;4.83;;
51810;SDS011;52468;40.116;18.296;2023-12-20T10:31:41;6.63;;;4.20;;
51810;SDS011;52468;40.116;18.296;2023-12-20T10:34:10;5.63;;;3.90;;
51810;SDS011;52468;40.116;18.296;2023-12-20T10:36:38;2.50;;;2.13;;
51810;SDS011;52468;40.116;18.296;2023-12-20T10:39:05;3.07;;;1.80;;
51810;SDS011;52468;40.116;18.296;2023-12-20T10:41:36;4.67;;;2.63;;
51810;SDS011;52468;40.116;18.296;2023-12-20T10:44:08;4.17;;;2.40;;
51810;SDS011;52468;40.116;18.296;2023-12-20T10:47:04;4.70;;;2.70;;
51810;SDS011;52468;40.116;18.296;2023-12-20T10:49:34;6.07;;;2.77;;
51810;SDS011;52468;40.116;18.296;2023-12-20T10:52:04;4.33;;;2.20;;
51810;SDS011;52468;40.116;18.296;2023-12-20T10:54:34;3.40;;;2.60;;
51810;SDS011;52468;40.116;18.296;2023-12-20T10:57:01;4.60;;;3.07;;
51810;SDS011;52468;40.116;18.296;2023-12-20T10:59:33;6.60;;;3.40;;
51810;SDS011;52468;40.116;18.296;2023-12-20T11:02:04;4.67;;;3.00;;
51810;SDS011;52468;40.116;18.296;2023-12-20T11:04:50;3.97;;;2.27;;
51810;SDS011;52468;40.116;18.296;2023-12-20T11:07:25;5.57;;;3.53;;
51810;SDS011;52468;40.116;18.296;2023-12-20T11:10:10;7.00;;;4.23;;
51810;SDS011;52468;40.116;18.296;2023-12-20T11:12:49;8.30;;;4.63;;
51810;SDS011;52468;40.116;18.296;2023-12-20T11:15:26;7.10;;;5.30;;
51810;SDS011;52468;40.116;18.296;2023-12-20T11:17:55;5.47;;;3.23;;
51810;SDS011;52468;40.116;18.296;2023-12-20T11:20:24;6.27;;;3.00;;
51810;SDS011;52468;40.116;18.296;2023-12-20T11:23:06;5.33;;;3.00;;
51810;SDS011;52468;40.116;18.296;2023-12-20T11:25:48;3.37;;;2.30;;
51810;SDS011;52468;40.116;18.296;2023-12-20T11:28:20;5.03;;;2.43;;
51810;SDS011;52468;40.116;18.296;2023-12-20T11:30:50;3.87;;;2.30;;
51810;SDS011;52468;40.116;18.296;2023-12-20T11:33:24;3.47;;;2.70;;
51810;SDS011;52468;40.116;18.296;2023-12-20T11:36:18;4.37;;;2.50;;
51810;SDS011;52468;40.116;18.296;2023-12-20T11:38:57;3.65;;;2.72;;
51810;SDS011;52468;40.116;18.296;2023-12-20T11:41:25;2.20;;;1.90;;
51810;SDS011;52468;40.116;18.296;2023-12-20T11:43:54;2.00;;;1.80;;
51810;SDS011;52468;40.116;18.296;2023-12-20T11:46:23;4.47;;;2.77;;
51810;SDS011;52468;40.116;18.296;2023-12-20T11:48:51;2.80;;;1.80;;
51810;SDS011;52468;40.116;18.296;2023-12-20T11:51:19;2.30;;;1.90;;
51810;SDS011;52468;40.116;18.296;2023-12-20T11:53:51;5.17;;;2.07;;
51810;SDS011;52468;40.116;18.296;2023-12-20T11:56:20;2.75;;;1.60;;
51810;SDS011;52468;40.116;18.296;2023-12-20T11:58:48;3.97;;;2.30;;
51810;SDS011;52468;40.116;18.296;2023-12-20T12:01:16;3.23;;;2.37;;
51810;SDS011;52468;40.116;18.296;2023-12-20T12:03:46;3.87;;;1.90;;
51810;SDS011;52468;40.116;18.296;2023-12-20T12:06:14;2.70;;;2.00;;
51810;SDS011;52468;40.116;18.296;2023-12-20T12:08:42;2.97;;;1.70;;
51810;SDS011;52468;40.116;18.296;2023-12-20T12:11:10;3.77;;;1.93;;
51810;SDS011;52468;40.116;18.296;2023-12-20T12:13:38;6.33;;;2.30;;
51810;SDS011;52468;40.116;18.296;2023-12-20T12:16:06;4.53;;;2.50;;
51810;SDS011;52468;40.116;18.296;2023-12-20T12:18:34;6.80;;;2.03;;
51810;SDS011;52468;40.116;18.296;2023-12-20T12:21:02;2.23;;;1.70;;
51810;SDS011;52468;40.116;18.296;2023-12-20T12:23:32;2.07;;;1.87;;
51810;SDS011;52468;40.116;18.296;2023-12-20T12:26:03;5.70;;;2.60;;
51810;SDS011;52468;40.116;18.296;2023-12-20T12:28:31;1.90;;;1.80;;
51810;SDS011;52468;40.116;18.296;2023-12-20T12:31:01;2.60;;;1.73;;
51810;SDS011;52468;40.116;18.296;2023-12-20T12:33:29;6.90;;;2.00;;
51810;SDS011;52468;40.116;18.296;2023-12-20T12:35:57;2.03;;;1.77;;
51810;SDS011;52468;40.116;18.296;2023-12-20T12:38:25;3.10;;;1.67;;
51810;SDS011;52468;40.116;18.296;2023-12-20T12:40:54;3.70;;;1.70;;
51810;SDS011;52468;40.116;18.296;2023-12-20T12:43:22;2.90;;;1.80;;
51810;SDS011;52468;40.116;18.296;2023-12-20T12:45:50;3.40;;;2.20;;
51810;SDS011;52468;40.116;18.296;2023-12-20T12:48:18;5.10;;;2.40;;
51810;SDS011;52468;40.116;18.296;2023-12-20T12:50:46;2.37;;;1.43;;
51810;SDS011;52468;40.116;18.296;2023-12-20T12:53:14;3.70;;;2.13;;
51810;SDS011;52468;40.116;18.296;2023-12-20T12:55:42;2.83;;;1.93;;
51810;SDS011;52468;40.116;18.296;2023-12-20T12:58:09;3.17;;;1.83;;
51810;SDS011;52468;40.116;18.296;2023-12-20T13:00:37;2.53;;;1.80;;
51810;SDS011;52468;40.116;18.296;2023-12-20T13:03:05;2.47;;;1.80;;
51810;SDS011;52468;40.116;18.296;2023-12-20T13:05:33;2.50;;;1.70;;
51810;SDS011;52468;40.116;18.296;2023-12-20T13:08:02;2.70;;;1.80;;
51810;SDS011;52468;40.116;18.296;2023-12-20T13:10:30;2.00;;;1.47;;
51810;SDS011;52468;40.116;18.296;2023-12-20T13:12:58;4.60;;;1.93;;
51810;SDS011;52468;40.116;18.296;2023-12-20T13:15:26;1.93;;;1.50;;
51810;SDS011;52468;40.116;18.296;2023-12-20T13:17:54;3.17;;;2.23;;
51810;SDS011;52468;40.116;18.296;2023-12-20T13:20:22;6.73;;;2.20;;
51810;SDS011;52468;40.116;18.296;2023-12-20T13:22:50;2.60;;;2.03;;
51810;SDS011;52468;40.116;18.296;2023-12-20T13:25:17;3.23;;;2.23;;
51810;SDS011;52468;40.116;18.296;2023-12-20T13:27:45;2.60;;;1.97;;
51810;SDS011;52468;40.116;18.296;2023-12-20T13:30:14;3.00;;;1.67;;
51810;SDS011;52468;40.116;18.296;2023-12-20T13:32:43;2.87;;;1.67;;
51810;SDS011;52468;40.116;18.296;2023-12-20T13:35:11;4.00;;;1.70;;
51810;SDS011;52468;40.116;18.296;2023-12-20T13:37:39;1.87;;;1.17;;
51810;SDS011;52468;40.116;18.296;2023-12-20T13:40:07;4.83;;;1.80;;
51810;SDS011;52468;40.116;18.296;2023-12-20T13:42:36;5.87;;;1.30;;
51810;SDS011;52468;40.116;18.296;2023-12-20T13:45:04;3.10;;;2.10;;
51810;SDS011;52468;40.116;18.296;2023-12-20T13:47:32;1.50;;;1.37;;
51810;SDS011;52468;40.116;18.296;2023-12-20T13:50:00;6.07;;;1.40;;
51810;SDS011;52468;40.116;18.296;2023-12-20T13:52:29;2.80;;;2.07;;
51810;SDS011;52468;40.116;18.296;2023-12-20T13:54:57;2.57;;;1.43;;
51810;SDS011;52468;40.116;18.296;2023-12-20T13:57:25;1.57;;;1.27;;
51810;SDS011;52468;40.116;18.296;2023-12-20T13:59:57;1.10;;;0.93;;
51810;SDS011;52468;40.116;18.296;2023-12-20T14:02:25;1.87;;;1.17;;
51810;SDS011;52468;40.116;18.296;2023-12-20T14:04:54;2.37;;;1.27;;
51810;SDS011;52468;40.116;18.296;2023-12-20T14:07:22;1.17;;;1.07;;
51810;SDS011;52468;40.116;18.296;2023-12-20T14:09:49;2.20;;;1.37;;
51810;SDS011;52468;40.116;18.296;2023-12-20T14:12:17;2.03;;;1.50;;
51810;SDS011;52468;40.116;18.296;2023-12-20T14:14:45;5.10;;;1.67;;
51810;SDS011;52468;40.116;18.296;2023-12-20T14:17:13;3.90;;;2.20;;
51810;SDS011;52468;40.116;18.296;2023-12-20T14:19:41;3.70;;;1.70;;
51810;SDS011;52468;40.116;18.296;2023-12-20T14:22:09;3.10;;;1.50;;
51810;SDS011;52468;40.116;18.296;2023-12-20T14:24:37;5.27;;;1.63;;